Time;durP1;ratioP1;P1;durP2;ratioP2;P2;SDS_P1;SDS_P2;PMS_P1;PMS_P2;Temp;Humidity;BMP_temperature;BMP_pressure;BME280_temperature;BME280_humidity;BME280_pressure;Samples;Min_cycle;Max_cycle;Signal;HPM_P1;HPM_P2
2022/10/06 00:01:23;;;;;;;;;2.00;0.50;;;;;15.99;62.03;102409.88;5121964;27;60349;-83
2022/10/06 00:03:48;;;;;;;;;2.00;0.00;;;;;15.94;61.59;102403.03;5122490;27;47135;-83
2022/10/06 00:06:15;;;;;;;;;2.50;1.00;;;;;15.86;61.60;102418.94;5139949;27;66138;-83
2022/10/06 00:08:42;;;;;;;;;1.75;0.00;;;;;15.82;61.91;102417.28;5122523;27;45499;-83
2022/10/06 00:11:08;;;;;;;;;3.50;0.00;;;;;15.78;61.51;102424.38;5141088;27;45392;-82
2022/10/06 00:13:34;;;;;;;;;0.75;0.00;;;;;15.72;61.48;102415.78;5140375;27;46433;-82
2022/10/06 00:16:00;;;;;;;;;2.00;0.00;;;;;15.65;61.70;102418.50;5122245;27;45625;-82
2022/10/06 00:18:27;;;;;;;;;0.75;0.00;;;;;15.63;62.64;102430.81;5122492;27;45423;-82
2022/10/06 00:20:57;;;;;;;;;1.50;0.00;;;;;15.60;62.05;102446.66;5121864;27;45506;-82
2022/10/06 00:23:23;;;;;;;;;1.75;0.00;;;;;15.58;61.87;102445.84;5122204;27;46699;-82
2022/10/06 00:25:48;;;;;;;;;4.00;0.00;;;;;15.58;62.86;102458.97;5122143;27;45474;-82
2022/10/06 00:28:14;;;;;;;;;1.75;0.75;;;;;15.55;62.24;102458.16;5140471;27;45330;-82
2022/10/06 00:30:39;;;;;;;;;5.50;0.00;;;;;15.51;62.08;102462.63;5140529;27;45294;-82
2022/10/06 00:33:05;;;;;;;;;2.00;1.00;;;;;15.48;62.30;102466.16;5139646;27;68319;-82
2022/10/06 00:35:33;;;;;;;;;1.25;0.00;;;;;15.47;62.66;102468.81;5103637;27;73202;-83
2022/10/06 00:37:59;;;;;;;;;1.00;0.00;;;;;15.41;63.27;102463.69;5104894;27;45522;-82
2022/10/06 00:40:25;;;;;;;;;1.75;0.50;;;;;15.40;62.94;102473.34;5121963;27;45392;-82
2022/10/06 00:42:54;;;;;;;;;1.00;0.25;;;;;15.39;62.18;102470.75;5139928;27;46978;-82
2022/10/06 00:45:25;;;;;;;;;3.00;0.25;;;;;15.37;62.66;102478.63;5121693;27;45629;-83
2022/10/06 00:47:50;;;;;;;;;1.50;1.00;;;;;15.37;63.33;102485.66;5140462;27;45277;-83
2022/10/06 00:50:16;;;;;;;;;2.25;0.50;;;;;15.34;62.81;102480.47;5121923;27;45444;-82
2022/10/06 00:52:41;;;;;;;;;1.00;0.00;;;;;15.32;63.22;102487.50;5121625;27;46221;-82
2022/10/06 00:55:10;;;;;;;;;0.00;0.00;;;;;15.27;63.12;102483.22;5121804;27;45413;-82
2022/10/06 00:57:37;;;;;;;;;2.00;1.25;;;;;15.23;62.86;102489.44;5121977;27;45367;-83
2022/10/06 01:00:04;;;;;;;;;3.25;1.00;;;;;15.22;63.05;102485.06;5121824;27;45316;-83
2022/10/06 01:02:52;;;;;;;;;3.00;0.00;;;;;15.22;63.22;102486.84;5121308;27;48462;-83
2022/10/06 01:05:26;;;;;;;;;1.00;1.00;;;;;15.19;63.20;102493.03;5121393;27;45373;-82
2022/10/06 01:07:51;;;;;;;;;4.25;0.00;;;;;15.17;63.46;102494.78;5121717;27;45493;-83
2022/10/06 01:10:17;;;;;;;;;1.75;0.75;;;;;15.15;63.15;102495.72;5120508;27;45402;-83
2022/10/06 01:12:42;;;;;;;;;2.25;0.25;;;;;15.14;63.44;102500.13;5139141;27;65700;-83
2022/10/06 01:15:08;;;;;;;;;0.75;0.75;;;;;15.13;63.33;102501.00;5139418;27;64097;-83
2022/10/06 01:17:37;;;;;;;;;3.75;0.00;;;;;15.07;63.34;102509.00;5103798;27;45351;-83
2022/10/06 01:20:10;;;;;;;;;1.00;0.00;;;;;15.06;63.18;102512.50;5121148;27;45433;-83
2022/10/06 01:22:38;;;;;;;;;0.00;0.00;;;;;15.05;63.11;102505.53;5121465;27;46427;-82
2022/10/06 01:25:05;;;;;;;;;0.25;0.25;;;;;15.06;63.02;102512.50;5103633;27;45901;-82
2022/10/06 01:27:31;;;;;;;;;3.00;0.00;;;;;15.04;63.20;102514.28;5139739;27;45418;-82
2022/10/06 01:29:58;;;;;;;;;1.00;1.00;;;;;15.02;63.39;102521.31;5121134;27;45323;-82
2022/10/06 01:32:25;;;;;;;;;1.00;1.00;;;;;14.97;63.18;102520.53;5121114;27;46419;-82
2022/10/06 01:34:50;;;;;;;;;1.00;1.00;;;;;14.98;63.96;102525.75;5120924;27;45628;-82
2022/10/06 01:37:15;;;;;;;;;1.50;1.50;;;;;14.95;63.24;102527.56;5120600;27;56565;-82
2022/10/06 01:39:42;;;;;;;;;1.00;0.50;;;;;14.93;63.47;102524.97;5138185;27;69406;-83
2022/10/06 01:42:08;;;;;;;;;3.00;0.75;;;;;14.90;63.60;102528.53;5120677;27;46834;-82
2022/10/06 01:44:34;;;;;;;;;1.00;0.25;;;;;14.86;63.35;102532.09;5121005;27;45673;-82
2022/10/06 01:46:59;;;;;;;;;0.75;0.00;;;;;14.86;63.13;102526.00;5139588;27;45756;-83
2022/10/06 01:49:25;;;;;;;;;1.50;0.00;;;;;14.85;63.15;102530.38;5120803;27;45438;-82
2022/10/06 01:51:50;;;;;;;;;3.25;0.75;;;;;14.82;63.50;102525.19;5120020;27;65694;-82
2022/10/06 01:54:15;;;;;;;;;0.50;0.25;;;;;14.79;63.15;102522.63;5138627;27;50163;-83
2022/10/06 01:56:41;;;;;;;;;3.50;0.75;;;;;14.79;63.38;102529.63;5120150;27;61529;-83
2022/10/06 01:59:06;;;;;;;;;1.50;1.00;;;;;14.78;63.50;102531.38;5103420;27;45380;-82
2022/10/06 02:01:32;;;;;;;;;1.50;0.00;;;;;14.80;63.74;102533.97;5119484;27;66398;-83
2022/10/06 02:03:57;;;;;;;;;2.50;1.25;;;;;14.78;63.54;102536.59;5139151;27;45285;-82
2022/10/06 02:06:23;;;;;;;;;6.25;1.00;;;;;14.69;63.39;102545.53;5139176;27;45367;-83
2022/10/06 02:08:48;;;;;;;;;0.00;0.00;;;;;14.67;63.24;102543.78;5102527;27;55557;-83
2022/10/06 02:11:14;;;;;;;;;3.75;0.75;;;;;14.65;63.43;102543.84;5120313;27;46518;-83
2022/10/06 02:13:40;;;;;;;;;1.00;1.00;;;;;14.63;63.41;102542.13;5120233;27;45301;-82
2022/10/06 02:16:07;;;;;;;;;2.00;1.00;;;;;14.60;62.74;102544.78;5120593;27;45508;-83
2022/10/06 02:18:33;;;;;;;;;5.25;1.25;;;;;14.55;62.99;102549.22;5120522;27;45538;-83
2022/10/06 02:20:59;;;;;;;;;2.25;1.00;;;;;14.55;63.31;102557.09;5107247;27;48142;-82
2022/10/06 02:23:24;;;;;;;;;1.00;1.00;;;;;14.52;63.12;102558.00;5138506;27;45554;-82
2022/10/06 02:25:57;;;;;;;;;3.00;2.25;;;;;14.48;63.03;102564.19;5120176;27;45323;-83
2022/10/06 02:28:23;;;;;;;;;6.25;1.00;;;;;14.45;63.21;102566.84;5120457;27;45445;-83
2022/10/06 02:30:48;;;;;;;;;2.00;1.00;;;;;14.45;63.76;102566.84;5119461;27;62676;-83
2022/10/06 02:33:13;;;;;;;;;2.75;0.75;;;;;14.47;63.12;102573.81;5137513;27;70012;-82
2022/10/06 02:35:41;;;;;;;;;2.75;0.00;;;;;14.43;63.71;102566.88;5137794;27;65468;-83
2022/10/06 02:38:07;;;;;;;;;2.50;1.00;;;;;14.39;63.24;102567.81;5120061;27;45409;-82
2022/10/06 02:40:32;;;;;;;;;1.25;1.00;;;;;14.34;63.19;102569.66;5119848;27;45494;-83
2022/10/06 02:42:57;;;;;;;;;4.25;0.75;;;;;14.31;63.64;102570.53;5119388;27;57936;-83
2022/10/06 02:45:22;;;;;;;;;2.00;0.00;;;;;14.32;63.67;102567.06;5138040;27;59134;-83
2022/10/06 02:47:48;;;;;;;;;3.75;0.00;;;;;14.32;63.42;102574.06;5138582;27;45329;-83
2022/10/06 02:50:14;;;;;;;;;2.00;0.50;;;;;14.31;63.22;102572.31;5138209;27;47429;-83
2022/10/06 02:52:41;;;;;;;;;2.00;0.00;;;;;14.28;63.34;102578.47;5138094;27;45294;-82
2022/10/06 02:55:07;;;;;;;;;0.00;0.00;;;;;14.25;63.15;102582.88;5138451;27;45307;-83
2022/10/06 02:57:33;;;;;;;;;2.00;1.00;;;;;14.24;63.36;102589.00;5119923;27;45344;-83
2022/10/06 02:59:58;;;;;;;;;3.25;1.00;;;;;14.24;63.64;102589.84;5136870;27;65116;-83
2022/10/06 03:02:23;;;;;;;;;1.00;1.00;;;;;14.21;62.96;102597.78;5119573;27;45335;-83
2022/10/06 03:04:49;;;;;;;;;2.50;1.00;;;;;14.20;63.61;102601.28;5118712;27;67417;-83
2022/10/06 03:07:15;;;;;;;;;2.50;1.00;;;;;14.18;63.39;102591.72;5136798;27;62189;-83
2022/10/06 03:09:40;;;;;;;;;3.75;0.50;;;;;14.20;63.84;102603.03;5101900;27;51177;-83
2022/10/06 03:12:05;;;;;;;;;1.00;0.00;;;;;14.20;63.37;102597.78;5138071;27;45526;-83
2022/10/06 03:14:31;;;;;;;;;2.75;0.50;;;;;14.15;63.50;102595.22;5118689;27;67836;-83
2022/10/06 03:16:56;;;;;;;;;3.75;1.00;;;;;14.06;63.57;102592.75;5119727;27;45374;-82
2022/10/06 03:19:22;;;;;;;;;3.50;1.00;;;;;13.99;63.49;102599.81;5137615;27;46331;-83
2022/10/06 03:21:48;;;;;;;;;2.75;1.00;;;;;13.93;63.54;102607.78;5136210;27;45479;-83
2022/10/06 03:24:13;;;;;;;;;2.00;0.75;;;;;13.92;63.84;102606.03;5138004;27;45318;-83
2022/10/06 03:26:41;;;;;;;;;4.75;1.75;;;;;13.93;64.20;102611.25;5119475;27;45598;-83
2022/10/06 03:29:07;;;;;;;;;4.75;1.00;;;;;13.92;63.81;102608.66;5137495;27;46538;-82
2022/10/06 03:31:32;;;;;;;;;2.50;1.50;;;;;13.91;63.80;102615.66;5137358;27;45410;-82
2022/10/06 03:33:58;;;;;;;;;0.75;0.00;;;;;13.90;63.39;102615.66;5126379;27;45434;-82
2022/10/06 03:36:25;;;;;;;;;1.75;0.00;;;;;13.84;63.65;102623.59;5116760;27;45509;-81
2022/10/06 03:38:51;;;;;;;;;1.00;0.00;;;;;13.79;63.74;102618.41;5116857;27;46134;-82
2022/10/06 03:41:22;;;;;;;;;2.25;1.00;;;;;13.75;63.41;102622.81;5116659;27;45380;-83
2022/10/06 03:43:49;;;;;;;;;2.50;0.00;;;;;13.70;63.91;102635.06;5098773;27;45474;-83
2022/10/06 03:46:20;;;;;;;;;1.00;1.00;;;;;13.63;63.52;102632.56;5098549;27;45571;-83
2022/10/06 03:48:46;;;;;;;;;2.50;0.50;;;;;13.60;63.82;102646.56;5098245;27;46137;-83
2022/10/06 03:51:14;;;;;;;;;2.00;0.00;;;;;13.61;63.92;102645.66;5098081;27;45336;-82
2022/10/06 03:53:42;;;;;;;;;1.50;1.00;;;;;13.61;64.39;102653.50;5116669;27;45302;-82
2022/10/06 03:56:17;;;;;;;;;2.00;0.75;;;;;13.60;63.64;102643.94;5116854;27;45314;-83
2022/10/06 03:58:45;;;;;;;;;3.75;1.00;;;;;13.61;63.64;102653.50;5116618;27;45305;-83
2022/10/06 04:01:33;;;;;;;;;3.25;1.00;;;;;13.60;63.72;102662.25;5116553;27;45762;-83
2022/10/06 04:04:00;;;;;;;;;7.00;1.00;;;;;13.57;64.55;102662.28;5097955;27;45415;-83
2022/10/06 04:06:26;;;;;;;;;4.50;1.00;;;;;13.57;63.59;102661.41;5116054;27;45459;-83
2022/10/06 04:08:53;;;;;;;;;3.75;0.00;;;;;13.55;63.99;102664.03;5116507;27;46650;-83
2022/10/06 04:11:27;;;;;;;;;1.50;1.00;;;;;13.56;64.36;102665.78;5098052;27;45370;-83
2022/10/06 04:13:59;;;;;;;;;3.00;0.00;;;;;13.58;63.84;102673.59;5098354;27;45346;-83
2022/10/06 04:16:33;;;;;;;;;1.75;0.00;;;;;13.59;63.98;102673.59;5116590;27;45371;-83
2022/10/06 04:19:00;;;;;;;;;0.75;0.50;;;;;13.60;63.92;102671.84;5115798;27;45597;-83
2022/10/06 04:21:28;;;;;;;;;4.00;0.50;;;;;13.61;63.91;102677.03;5097662;27;45478;-83
2022/10/06 04:23:57;;;;;;;;;2.75;0.00;;;;;13.61;64.41;102676.19;5116474;27;45293;-83
2022/10/06 04:26:29;;;;;;;;;1.00;0.00;;;;;13.58;63.97;102676.22;5116418;27;45446;-83
2022/10/06 04:28:54;;;;;;;;;2.00;0.00;;;;;13.56;64.34;102684.09;5116240;27;45351;-83
2022/10/06 04:31:28;;;;;;;;;4.00;0.75;;;;;13.57;64.25;102682.34;5097865;27;45354;-83
2022/10/06 04:33:55;;;;;;;;;2.50;1.00;;;;;13.55;63.92;102693.69;5108303;27;45754;-82
2022/10/06 04:36:25;;;;;;;;;0.00;0.00;;;;;13.55;64.58;102693.69;5118706;27;45321;-83
2022/10/06 04:38:57;;;;;;;;;0.75;0.00;;;;;13.53;64.27;102691.97;5118331;27;47297;-83
2022/10/06 04:41:25;;;;;;;;;1.00;0.00;;;;;13.52;64.41;102698.06;5136898;27;45270;-83
2022/10/06 04:43:51;;;;;;;;;1.00;1.00;;;;;13.51;64.85;102694.59;5137418;27;45279;-82
2022/10/06 04:46:18;;;;;;;;;3.00;0.00;;;;;13.50;64.90;102695.50;5140598;27;45378;-83
2022/10/06 04:48:44;;;;;;;;;0.75;0.00;;;;;13.49;64.75;102696.38;5121423;27;45549;-82
2022/10/06 04:51:13;;;;;;;;;1.50;0.00;;;;;13.44;64.89;102695.53;5121708;27;46865;-78
2022/10/06 04:53:39;;;;;;;;;3.00;1.00;;;;;13.42;64.62;102704.28;5140521;27;45491;-78
2022/10/06 04:56:07;;;;;;;;;3.25;1.00;;;;;13.40;64.72;102711.28;5121721;27;45363;-78
2022/10/06 04:58:34;;;;;;;;;10.25;1.00;;;;;13.35;64.45;102714.81;5121787;27;46367;-78
2022/10/06 05:01:01;;;;;;;;;2.75;2.50;;;;;13.28;64.34;102712.22;5140061;27;45600;-78
2022/10/06 05:03:27;;;;;;;;;4.25;2.00;;;;;13.24;64.85;102710.50;5139893;27;45457;-79
2022/10/06 05:06:06;;;;;;;;;3.50;1.25;;;;;13.22;64.86;102714.91;5140328;27;45323;-78
2022/10/06 05:08:32;;;;;;;;;4.00;1.50;;;;;13.23;64.65;102721.88;5140074;27;46054;-78
2022/10/06 05:11:06;;;;;;;;;0.25;0.25;;;;;13.25;65.08;102725.34;5140111;27;45872;-78
2022/10/06 05:13:31;;;;;;;;;2.00;1.00;;;;;13.24;64.52;102715.75;5121600;27;45428;-78
2022/10/06 05:15:58;;;;;;;;;3.25;1.00;;;;;13.24;64.50;102726.22;5140197;27;45387;-78
2022/10/06 05:18:24;;;;;;;;;7.25;1.00;;;;;13.18;64.62;102717.53;5120829;27;46890;-78
2022/10/06 05:21:05;;;;;;;;;1.75;1.00;;;;;13.15;64.50;102720.19;5139250;27;45769;-80
2022/10/06 05:23:32;;;;;;;;;2.00;1.00;;;;;13.12;65.25;102717.59;5139818;27;45411;-79
2022/10/06 05:25:59;;;;;;;;;3.00;1.00;;;;;13.09;65.04;102720.25;5139988;27;45349;-78
2022/10/06 05:28:25;;;;;;;;;4.00;2.00;;;;;13.05;64.90;102721.13;5121223;27;45921;-80
2022/10/06 05:30:58;;;;;;;;;2.50;1.50;;;;;13.00;64.99;102720.31;5139627;27;45295;-78
2022/10/06 05:33:25;;;;;;;;;3.75;1.00;;;;;12.98;65.40;102732.50;5139779;27;45413;-79
2022/10/06 05:35:58;;;;;;;;;4.50;1.50;;;;;12.97;65.39;102731.63;5139587;27;45433;-79
2022/10/06 05:38:26;;;;;;;;;3.25;2.00;;;;;12.98;65.24;102736.00;5121006;27;45808;-80
2022/10/06 05:40:59;;;;;;;;;4.25;2.25;;;;;12.97;65.69;102736.88;5139400;27;45365;-79
2022/10/06 05:43:24;;;;;;;;;6.25;2.00;;;;;12.98;65.70;102738.63;5139617;27;45431;-79
2022/10/06 05:45:54;;;;;;;;;9.00;2.00;;;;;12.96;65.04;102745.59;5119845;27;69274;-78
2022/10/06 05:48:19;;;;;;;;;5.25;1.00;;;;;12.91;65.04;102742.16;5139302;27;46899;-79
2022/10/06 05:50:45;;;;;;;;;3.00;1.50;;;;;12.91;65.14;102744.75;5138392;27;67418;-79
2022/10/06 05:53:11;;;;;;;;;5.25;2.25;;;;;12.90;65.25;102750.84;5138209;27;69321;-79
2022/10/06 05:55:36;;;;;;;;;1.50;1.00;;;;;12.87;65.76;102752.63;5120575;27;45367;-79
2022/10/06 05:58:01;;;;;;;;;3.00;1.00;;;;;12.88;65.87;102751.75;5139079;27;45437;-80
2022/10/06 06:00:27;;;;;;;;;2.00;1.00;;;;;12.91;65.79;102751.75;5137724;27;72830;-80
2022/10/06 06:02:52;;;;;;;;;3.25;1.00;;;;;12.92;65.70;102754.31;5138151;27;68329;-80
2022/10/06 06:05:17;;;;;;;;;1.00;1.00;;;;;12.91;65.39;102756.97;5119701;27;64323;-80
2022/10/06 06:07:43;;;;;;;;;6.00;1.75;;;;;12.90;65.16;102755.22;5119513;27;72439;-80
2022/10/06 06:10:08;;;;;;;;;3.25;0.75;;;;;12.90;65.91;102756.09;5138049;27;69171;-80
2022/10/06 06:12:34;;;;;;;;;2.75;1.75;;;;;12.90;66.03;102758.69;5138984;27;45295;-80
2022/10/06 06:17:43;;;;;;;;;7.50;3.50;;;;;12.86;65.30;102758.75;5138862;27;45241;-80
2022/10/06 06:20:09;;;;;;;;;4.25;1.75;;;;;12.85;65.63;102763.09;5137490;27;72739;-80
2022/10/06 06:22:34;;;;;;;;;4.00;2.50;;;;;12.85;65.57;102770.06;5120161;27;45395;-80
2022/10/06 06:25:00;;;;;;;;;2.00;2.00;;;;;12.85;65.54;102770.94;5138666;27;45383;-80
2022/10/06 06:27:25;;;;;;;;;7.25;2.25;;;;;12.86;65.90;102780.50;5138751;27;46347;-80
2022/10/06 06:29:51;;;;;;;;;2.25;1.50;;;;;12.86;66.15;102772.66;5137341;27;73165;-80
2022/10/06 06:32:16;;;;;;;;;2.75;2.75;;;;;12.88;65.92;102783.13;5119303;27;67606;-80
2022/10/06 06:34:41;;;;;;;;;5.50;1.00;;;;;12.89;66.18;102782.22;5137705;27;70095;-80
2022/10/06 06:37:08;;;;;;;;;7.25;0.00;;;;;12.91;66.17;102790.94;5138103;27;59134;-80
2022/10/06 06:39:33;;;;;;;;;2.00;1.00;;;;;12.93;66.40;102791.81;5120097;27;45895;-80
2022/10/06 06:42:00;;;;;;;;;4.50;2.00;;;;;12.92;66.32;102787.44;5119051;27;66765;-80
2022/10/06 06:44:26;;;;;;;;;6.00;2.00;;;;;12.92;65.72;102796.16;5138153;27;45376;-80
2022/10/06 06:46:51;;;;;;;;;4.75;2.75;;;;;12.93;66.34;102800.50;5138464;27;46209;-80
2022/10/06 06:49:19;;;;;;;;;5.25;2.50;;;;;12.94;66.09;102799.63;5138261;27;45445;-80
2022/10/06 06:51:53;;;;;;;;;4.50;2.75;;;;;12.92;65.78;102809.22;5138463;27;45303;-80
2022/10/06 06:54:18;;;;;;;;;5.00;2.00;;;;;12.94;66.28;102811.81;5120932;27;45316;-80
2022/10/06 06:56:45;;;;;;;;;6.75;4.00;;;;;12.95;65.85;102806.59;5119633;27;46282;-80
2022/10/06 06:59:12;;;;;;;;;7.50;2.50;;;;;12.97;65.68;102810.06;5119522;27;45801;-80
2022/10/06 07:01:45;;;;;;;;;5.25;2.25;;;;;12.97;65.77;102812.69;5138168;27;45493;-80
2022/10/06 07:04:12;;;;;;;;;10.25;4.50;;;;;12.98;66.11;102822.28;5120263;27;45476;-80
2022/10/06 07:06:39;;;;;;;;;2.00;2.00;;;;;13.01;66.00;102828.34;5137393;27;45490;-80
2022/10/06 07:09:04;;;;;;;;;4.75;2.00;;;;;13.03;65.70;102831.81;5137978;27;45769;-80
2022/10/06 07:11:38;;;;;;;;;2.00;1.25;;;;;13.01;66.27;102830.97;5138023;27;45398;-80
2022/10/06 07:14:11;;;;;;;;;3.50;1.50;;;;;13.02;65.90;102835.31;5137864;27;45436;-80
2022/10/06 07:25:10;;;;;;;;;7.00;2.00;;;;;13.10;65.96;102846.59;5138083;27;45301;-80
2022/10/06 07:27:35;;;;;;;;;2.00;2.00;;;;;13.14;65.65;102851.78;5137415;27;46366;-80
2022/10/06 07:30:01;;;;;;;;;2.33;1.00;;;;;13.18;65.21;102856.13;5137737;27;45232;-80
2022/10/06 07:32:29;;;;;;;;;5.75;1.75;;;;;13.21;65.90;102854.38;5137674;27;45252;-80
2022/10/06 07:34:56;;;;;;;;;3.00;2.50;;;;;13.23;65.61;102853.50;5119446;27;45402;-80
2022/10/06 07:37:22;;;;;;;;;3.50;1.00;;;;;13.28;65.43;102871.75;5137571;27;46184;-80
2022/10/06 07:39:48;;;;;;;;;14.75;6.50;;;;;13.31;65.62;102866.53;5119221;27;45351;-80
2022/10/06 07:42:15;;;;;;;;;10.00;3.00;;;;;13.35;65.10;102870.88;5137304;27;45339;-80
2022/10/06 07:44:41;;;;;;;;;4.00;1.50;;;;;13.39;64.94;102874.34;5137677;27;45350;-80
2022/10/06 07:47:07;;;;;;;;;5.25;2.75;;;;;13.43;64.88;102873.44;5137554;27;46310;-80
2022/10/06 07:49:33;;;;;;;;;3.25;1.00;;;;;13.48;65.18;102879.50;5137154;27;50403;-80
2022/10/06 07:51:58;;;;;;;;;2.00;2.00;;;;;13.58;65.22;102886.44;5137741;27;45491;-80
2022/10/06 07:54:24;;;;;;;;;3.50;2.75;;;;;13.63;64.73;102889.88;5137586;27;45508;-80
2022/10/06 07:56:50;;;;;;;;;8.25;0.75;;;;;13.66;64.77;102887.22;5136882;27;46111;-79
2022/10/06 07:59:16;;;;;;;;;1.75;0.25;;;;;13.71;64.72;102885.44;5118864;27;45438;-79
2022/10/06 08:01:43;;;;;;;;;3.00;1.00;;;;;13.79;64.76;102884.53;5137314;27;45305;-80
2022/10/06 08:04:08;;;;;;;;;4.50;1.00;;;;;13.86;64.52;102887.06;5119186;27;45399;-79
2022/10/06 08:06:33;;;;;;;;;2.00;1.00;;;;;13.95;64.32;102891.38;5137208;27;46321;-79
2022/10/06 08:08:59;;;;;;;;;1.50;1.00;;;;;14.03;64.21;102893.94;5118179;27;55643;-80
2022/10/06 08:11:24;;;;;;;;;4.00;2.00;;;;;14.12;64.35;102892.06;5136947;27;45400;-79
2022/10/06 08:13:50;;;;;;;;;2.00;1.00;;;;;14.21;63.81;102893.75;5137398;27;45502;-80
2022/10/06 08:16:21;;;;;;;;;2.50;1.00;;;;;14.29;63.36;102904.16;5137233;27;46846;-81
2022/10/06 08:18:53;;;;;;;;;1.75;1.75;;;;;14.34;63.21;102894.50;5118974;27;45522;-80
2022/10/06 08:21:29;;;;;;;;;3.75;1.00;;;;;14.40;63.17;102901.44;5139703;27;54989;-80
2022/10/06 08:23:56;;;;;;;;;2.75;1.25;;;;;14.44;63.52;102903.97;5122377;27;45404;-82
2022/10/06 08:26:23;;;;;;;;;1.50;1.00;;;;;14.50;63.03;102906.56;5139703;27;46048;-83
2022/10/06 08:28:54;;;;;;;;;2.75;0.00;;;;;14.59;63.36;102900.34;5135754;27;45415;-81
2022/10/06 08:31:20;;;;;;;;;4.00;1.00;;;;;14.67;62.73;102900.25;5113582;27;45455;-81
2022/10/06 08:33:46;;;;;;;;;2.50;1.00;;;;;14.75;62.37;102895.81;5140163;27;45327;-81
2022/10/06 08:36:15;;;;;;;;;2.00;1.00;;;;;14.83;61.75;102919.31;5121775;27;45435;-82
2022/10/06 08:38:41;;;;;;;;;5.00;1.50;;;;;14.89;61.83;102916.59;5121636;27;45761;-81
2022/10/06 08:41:24;;;;;;;;;2.00;1.00;;;;;14.94;61.82;102921.81;5121376;27;45339;-81
2022/10/06 08:44:01;;;;;;;;;3.25;0.25;;;;;14.98;62.30;102918.25;5140405;27;45471;-81
2022/10/06 08:46:33;;;;;;;;;0.50;0.00;;;;;15.01;61.63;102915.59;5119513;27;47632;-81
2022/10/06 08:49:00;;;;;;;;;1.50;1.00;;;;;15.05;61.10;102917.28;5140231;27;45695;-81
2022/10/06 08:51:44;;;;;;;;;8.25;0.75;;;;;15.12;61.60;102921.59;5121944;27;45317;-81
2022/10/06 08:54:14;;;;;;;;;5.00;1.25;;;;;15.20;60.96;102921.47;5121230;27;45333;-81
2022/10/06 08:56:53;;;;;;;;;4.50;1.00;;;;;15.26;61.30;102921.38;5104212;27;46285;-81
2022/10/06 08:59:18;;;;;;;;;1.25;1.25;;;;;15.28;60.72;102928.34;5121647;27;45398;-82
2022/10/06 09:01:46;;;;;;;;;4.00;1.50;;;;;15.34;60.82;102934.38;5121468;27;45344;-81
2022/10/06 09:04:25;;;;;;;;;2.75;0.75;;;;;15.40;60.82;102935.19;5104003;27;45601;-81
2022/10/06 09:06:53;;;;;;;;;3.75;1.00;;;;;15.46;61.10;102936.84;5121671;27;46255;-81
2022/10/06 09:09:45;;;;;;;;;2.50;1.00;;;;;15.52;60.56;102933.28;5121017;27;45642;-81
2022/10/06 09:12:18;;;;;;;;;8.00;1.00;;;;;15.61;60.62;102934.00;5075684;28;45475;-81
2022/10/06 09:14:55;;;;;;;;;3.00;1.25;;;;;15.62;60.21;102935.75;5058799;28;45507;-82
2022/10/06 09:17:34;;;;;;;;;2.25;1.75;;;;;15.62;60.07;102933.13;5058739;28;46350;-81
2022/10/06 09:20:26;;;;;;;;;2.50;1.00;;;;;15.66;60.47;102940.03;5058874;28;45609;-81
2022/10/06 09:22:55;;;;;;;;;5.50;2.00;;;;;15.70;60.43;102938.25;5058296;28;45518;-82
2022/10/06 09:25:24;;;;;;;;;1.00;0.50;;;;;15.75;59.42;102936.47;5057926;28;65381;-81
2022/10/06 09:27:53;;;;;;;;;4.00;2.00;;;;;15.83;60.18;102938.97;5058795;28;47574;-81
2022/10/06 09:30:19;;;;;;;;;3.50;1.00;;;;;15.92;59.82;102941.44;5057963;28;45363;-81
2022/10/06 09:32:47;;;;;;;;;4.50;1.00;;;;;16.00;59.76;102939.53;5058077;28;45376;-81
2022/10/06 09:35:31;;;;;;;;;1.75;1.00;;;;;16.06;59.34;102939.47;5058541;28;45337;-81
2022/10/06 09:38:04;;;;;;;;;3.00;1.00;;;;;16.14;59.75;102939.31;5057835;28;46447;-81
2022/10/06 09:40:52;;;;;;;;;2.00;1.00;;;;;16.27;58.73;102939.97;5075260;28;45562;-81
2022/10/06 09:43:26;;;;;;;;;2.00;1.00;;;;;16.33;58.64;102937.22;5059331;28;45374;-81
2022/10/06 09:45:53;;;;;;;;;4.50;0.25;;;;;16.38;58.66;102945.91;5074757;28;45561;-81
2022/10/06 09:48:25;;;;;;;;;4.25;0.75;;;;;16.48;58.81;102945.72;5067720;27;46539;-81
2022/10/06 09:51:11;;;;;;;;;3.00;1.00;;;;;16.55;58.51;102937.69;5099883;27;45394;-81
2022/10/06 09:53:40;;;;;;;;;5.25;2.00;;;;;16.64;58.33;102942.78;5099848;27;45312;-81
2022/10/06 09:56:20;;;;;;;;;4.00;2.00;;;;;16.69;58.15;102941.81;5118318;27;45343;-81
2022/10/06 09:58:56;;;;;;;;;2.25;1.00;;;;;16.73;57.38;102951.38;5100159;27;45375;-81
2022/10/06 10:01:25;;;;;;;;;5.25;0.25;;;;;16.71;57.96;102943.50;5099876;27;45447;-82
2022/10/06 10:03:53;;;;;;;;;3.00;1.00;;;;;16.80;57.87;102935.44;5118285;27;45391;-82
2022/10/06 10:06:27;;;;;;;;;4.25;0.50;;;;;16.87;57.87;102943.25;5100933;27;45382;-80
2022/10/06 10:09:20;;;;;;;;;3.75;1.00;;;;;16.97;57.80;102936.88;5113027;27;45754;-81
2022/10/06 10:14:43;;;;;;;;;1.00;1.00;;;;;17.21;57.19;102940.75;5118318;27;45220;-82
2022/10/06 10:17:16;;;;;;;;;2.00;1.75;;;;;17.31;56.62;102941.41;5099747;27;70473;-80
2022/10/06 10:19:43;;;;;;;;;4.00;1.50;;;;;17.39;56.63;102926.34;5093154;27;45459;-81
2022/10/06 10:22:36;;;;;;;;;3.25;1.00;;;;;17.46;55.96;102930.56;5097866;27;45555;-81
2022/10/06 10:25:24;;;;;;;;;3.00;1.00;;;;;17.52;55.91;102934.81;5096908;27;45599;-81
2022/10/06 10:27:54;;;;;;;;;4.00;1.50;;;;;17.62;55.90;102941.59;5106439;27;45414;-81
2022/10/06 10:30:20;;;;;;;;;1.50;1.00;;;;;17.70;54.92;102929.13;5099055;27;45379;-81
2022/10/06 10:33:01;;;;;;;;;3.00;1.50;;;;;17.74;53.77;102930.78;5116557;27;45394;-80
2022/10/06 10:35:34;;;;;;;;;2.00;0.50;;;;;17.80;54.23;102929.75;5098776;27;45378;-81
2022/10/06 10:38:19;;;;;;;;;1.00;1.00;;;;;17.88;54.28;102917.28;5099493;27;45385;-81
2022/10/06 10:40:54;;;;;;;;;1.50;0.75;;;;;18.05;53.93;102930.03;5099180;27;46093;-82
2022/10/06 10:43:46;;;;;;;;;2.50;0.75;;;;;18.28;53.11;102921.53;5098276;27;45314;-82
2022/10/06 10:46:21;;;;;;;;;1.00;0.75;;;;;18.53;52.29;102924.34;5099264;27;45365;-81
2022/10/06 10:49:05;;;;;;;;;1.50;0.00;;;;;18.74;51.26;102922.91;5112430;27;45626;-81
2022/10/06 10:51:31;;;;;;;;;0.00;0.00;;;;;18.90;51.08;102923.34;5096775;27;46290;-81
2022/10/06 10:54:03;;;;;;;;;0.75;0.00;;;;;19.08;50.09;102921.94;5078594;27;45378;-80
2022/10/06 10:56:30;;;;;;;;;1.50;0.00;;;;;19.26;49.89;102917.00;5079589;27;45496;-79
2022/10/06 10:59:05;;;;;;;;;1.75;0.00;;;;;19.49;49.46;102913.66;5078633;27;45478;-78
2022/10/06 11:01:36;;;;;;;;;3.00;1.00;;;;;19.79;49.66;102919.72;5079435;27;47177;-79
2022/10/06 11:04:02;;;;;;;;;4.25;0.75;;;;;19.93;49.31;102914.00;5079391;27;45645;-79
2022/10/06 11:06:45;;;;;;;;;0.00;0.00;;;;;20.00;48.25;102909.34;5101193;27;45432;-79
2022/10/06 11:09:44;;;;;;;;;4.00;1.00;;;;;20.07;48.08;102914.38;5091603;27;45507;-79
2022/10/06 11:12:32;;;;;;;;;2.00;2.00;;;;;20.63;47.55;102918.59;5096065;27;47138;-78
2022/10/06 11:15:03;;;;;;;;;2.50;0.75;;;;;22.61;47.26;102909.63;5078598;27;45647;-79
2022/10/06 11:17:38;;;;;;;;;1.00;0.75;;;;;24.11;44.87;102921.94;5079224;27;45236;-79
2022/10/06 11:20:36;;;;;;;;;3.00;0.50;;;;;26.74;41.87;102913.19;5088883;27;45430;-79
2022/10/06 11:23:20;;;;;;;;;2.75;1.00;;;;;29.01;38.77;102912.94;5118014;27;46212;-79
2022/10/06 11:26:00;;;;;;;;;2.00;1.00;;;;;30.74;34.38;102916.69;5137707;27;45375;-79
2022/10/06 11:29:23;;;;;;;;;0.75;0.75;;;;;32.26;32.55;102918.38;5119334;27;45385;-79
2022/10/06 11:32:11;;;;;;;;;4.25;1.00;;;;;33.99;30.51;102917.91;5033360;28;45494;-79
2022/10/06 11:34:38;;;;;;;;;2.00;0.50;;;;;35.15;26.91;102915.59;5028895;28;47069;-79
2022/10/06 11:37:15;;;;;;;;;2.00;0.00;;;;;35.91;27.93;102913.38;5033222;28;45445;-79
2022/10/06 11:40:19;;;;;;;;;0.00;0.00;;;;;36.85;25.87;102915.16;5033308;28;45443;-81
2022/10/06 11:42:59;;;;;;;;;4.50;1.00;;;;;37.86;25.25;102908.53;5016631;28;45484;-79
2022/10/06 11:45:34;;;;;;;;;2.00;0.00;;;;;38.55;20.33;102915.31;5016394;28;46066;-81
2022/10/06 11:48:20;;;;;;;;;0.00;0.00;;;;;38.52;20.27;102911.00;5022800;28;45454;-79
2022/10/06 11:50:48;;;;;;;;;1.00;0.25;;;;;38.74;18.22;102906.66;5036139;28;45350;-80